Tuesday, October 17, 2017, 2:54 PM EDT
Back to Local

KRDG, Reading Regional Airport

Location: Reading, PA, United States Lat: 40.367
Local Time: 2:54 PM EDT (18:54 GMT) Lon: -75.967
Time Zone: US/Eastern Elev: 344 ft

Show me the last for .
Show Decoded

2017-10-17 13:54 METAR KRDG 171754Z VRB04KT 10SM CLR 14/02 A3030 RMK AO2 SLP265 T01440022 10144
                 20022 58022 =
2017-10-17 12:54 METAR KRDG 171654Z VRB05KT 10SM CLR 13/03 A3033 RMK AO2 SLP276 T01330028 =
2017-10-17 11:54 METAR KRDG 171554Z 16003KT 10SM CLR 11/03 A3035 RMK AO2 SLP283 T01110028 =
2017-10-17 10:54 METAR KRDG 171454Z 31003KT 10SM CLR 10/03 A3036 RMK AO2 SLP288 T01000028 50006 =
2017-10-17 09:54 METAR KRDG 171354Z 00000KT 10SM CLR 09/03 A3037 RMK AO2 SLP291 T00890028 =
2017-10-17 08:54 METAR KRDG 171254Z 00000KT 10SM CLR 06/04 A3037 RMK AO2 SLP289 T00610039 =
2017-10-17 07:54 METAR KRDG 171154Z 20003KT 10SM CLR 02/02 A3034 RMK AO2 SLP283 T00220022 10067
                 20017 51015 =
2017-10-17 06:54 METAR KRDG 171054Z 00000KT 10SM CLR 03/03 A3033 RMK AO2 SLP278 T00280028 =
2017-10-17 05:54 METAR KRDG 170954Z 00000KT 10SM CLR 03/03 A3032 RMK AO2 SLP273 T00280028 =
2017-10-17 04:54 METAR KRDG 170854Z 00000KT 10SM CLR 04/02 A3030 RMK AO2 SLP266 T00390022 53012 =
2017-10-17 03:54 METAR KRDG 170754Z 00000KT 10SM CLR 03/02 A3027 RMK AO2 SLP257 T00330022 =
2017-10-17 02:54 METAR KRDG 170654Z 34005KT 10SM CLR 04/02 A3027 RMK AO2 SLP258 T00440022 =
2017-10-17 01:54 METAR KRDG 170554Z 00000KT 10SM CLR 06/03 A3026 RMK AO2 SLP254 T00560028 10094
                 20050 51008 =
2017-10-17 00:54 METAR KRDG 170454Z 33004KT 10SM CLR 07/03 A3026 RMK AO2 SLP253 T00670028
                 401940067 =
2017-10-16 23:54 METAR KRDG 170354Z 36005KT 10SM CLR 07/03 A3025 RMK AO2 SLP250 T00670033 =
2017-10-16 22:54 METAR KRDG 170254Z AUTO 34005KT 10SM CLR 08/04 A3024 RMK AO2 SLP246 T00780039
                 51028 =
2017-10-16 21:54 METAR KRDG 170154Z AUTO 35005KT 10SM CLR 08/04 A3021 RMK AO2 SLP238 T00780044 =
2017-10-16 20:54 METAR KRDG 170054Z AUTO 00000KT 10SM CLR 09/05 A3018 RMK AO2 SLP225 T00890050 =
2017-10-16 19:54 METAR KRDG 162354Z AUTO 34003KT 10SM CLR 09/06 A3015 RMK AO2 SLP216 T00940056
                 10156 20094 53018 =
2017-10-16 18:54 METAR KRDG 162254Z AUTO 35004KT 10SM CLR 12/03 A3013 RMK AO2 SLP207 T01220028 =
2017-10-16 17:54 METAR KRDG 162154Z AUTO 34009KT 10SM CLR 13/03 A3011 RMK AO2 SLP200 T01330028 =
2017-10-16 16:54 METAR KRDG 162054Z AUTO 34010G19KT 10SM CLR 15/03 A3010 RMK AO2 SLP197 T01500028
                 53010 =
2017-10-16 15:54 METAR KRDG 161954Z AUTO 32012G21KT 10SM CLR 15/04 A3009 RMK AO2 PK WND
                 34027/1914 SLP194 T01500039 =

Support USWX by starting your Amazon purchase here.